Porto Lucena, Brazil
Current Conditions -  °F | °C
As of 11:30 AM on Tuesday 21 Oct 2014 (Local Time) from SGEN Reporting Station
Clear Clear  
Wind Chill: 75°   Ceiling: Unl
Heat Index: 75°   Visibility: 6mi
Dew Point: 52°   Wind: 5mph
Humidity: 44%   Direction: 100°E
Pressure: 30.09"   Gusts: NA
Location:  27.86°S, 55.02°W
Report Text: SGEN 211330Z 10004KT CAVOK 24/11 Q1019
Loading
Personal Weather Stations






























Interactive Weather Map
Tropical Storm Tracking
New forecast layout! Learn more

10-Day Weather Forecast

Advertisements
Track Severe Weather on mobile